ADDS METAR Data

Data at: 0505 UTC 20 Apr 2018

METAR for:KPYM (Plymouth Muni, MA, US)
Text:KPYM 200452Z AUTO 29012KT 10SM OVC055 04/01 A2984 RMK AO2 SLP104 T00440006 400610006
Temperature: 4.4°C ( 40°F)
Dewpoint: 0.6°C ( 33°F) [RH = 76%]
Pressure (altimeter):29.84 inches Hg (1010.6 mb) [Sea level pressure: 1010.4 mb]
Winds:from the WNW (290 degrees) at 14 MPH (12 knots; 6.2 m/s)
Visibility:10 or more sm (16+ km)
Ceiling:5500 feet AGL
Clouds: overcast cloud deck at 5500 feet AGL
QC Flag:automated observation with no human augmentation